sensor_id;sensor_type;location;lat;lon;timestamp;pressure;altitude;pressure_sealevel;temperature;humidity
11648;BME280;5880;52.342;9.662;2023-02-11T00:00:16;102508.00;;;9.97;51.59
11648;BME280;5880;52.342;9.662;2023-02-11T00:02:42;102503.44;;;9.98;51.66
11648;BME280;5880;52.342;9.662;2023-02-11T00:05:08;102493.34;;;9.98;51.74
11648;BME280;5880;52.342;9.662;2023-02-11T00:07:34;102494.00;;;10.00;51.71
11648;BME280;5880;52.342;9.662;2023-02-11T00:10:00;102485.81;;;10.00;51.64
11648;BME280;5880;52.342;9.662;2023-02-11T00:12:29;102482.88;;;10.02;51.66
11648;BME280;5880;52.342;9.662;2023-02-11T00:14:55;102483.75;;;10.02;51.55
11648;BME280;5880;52.342;9.662;2023-02-11T00:17:21;102501.00;;;10.03;51.53
11648;BME280;5880;52.342;9.662;2023-02-11T00:19:51;102508.50;;;10.01;51.60
11648;BME280;5880;52.342;9.662;2023-02-11T00:22:17;102507.28;;;10.03;51.61
11648;BME280;5880;52.342;9.662;2023-02-11T00:24:43;102497.03;;;10.05;51.57
11648;BME280;5880;52.342;9.662;2023-02-11T00:27:09;102495.16;;;10.06;51.59
11648;BME280;5880;52.342;9.662;2023-02-11T00:29:36;102503.34;;;10.06;51.62
11648;BME280;5880;52.342;9.662;2023-02-11T00:32:03;102510.53;;;10.07;51.83
11648;BME280;5880;52.342;9.662;2023-02-11T00:34:35;102493.94;;;10.08;51.81
11648;BME280;5880;52.342;9.662;2023-02-11T00:37:03;102483.00;;;10.08;51.79
11648;BME280;5880;52.342;9.662;2023-02-11T00:39:29;102491.88;;;10.10;51.68
11648;BME280;5880;52.342;9.662;2023-02-11T00:41:56;102500.06;;;10.10;51.80
11648;BME280;5880;52.342;9.662;2023-02-11T00:44:21;102506.38;;;10.11;51.73
11648;BME280;5880;52.342;9.662;2023-02-11T00:46:47;102513.72;;;10.10;52.07
11648;BME280;5880;52.342;9.662;2023-02-11T00:49:13;102508.81;;;10.06;51.85
11648;BME280;5880;52.342;9.662;2023-02-11T00:51:39;102509.47;;;10.08;51.99
11648;BME280;5880;52.342;9.662;2023-02-11T00:54:05;102523.25;;;10.14;51.84
11648;BME280;5880;52.342;9.662;2023-02-11T00:56:31;102514.22;;;10.14;52.04
11648;BME280;5880;52.342;9.662;2023-02-11T00:58:57;102516.97;;;10.14;52.01
11648;BME280;5880;52.342;9.662;2023-02-11T01:01:23;102531.28;;;10.16;52.17
11648;BME280;5880;52.342;9.662;2023-02-11T01:03:48;102529.75;;;10.13;52.16
11648;BME280;5880;52.342;9.662;2023-02-11T01:06:14;102529.19;;;10.18;52.28
11648;BME280;5880;52.342;9.662;2023-02-11T01:08:40;102523.94;;;10.17;52.35
11648;BME280;5880;52.342;9.662;2023-02-11T01:11:14;102513.47;;;10.20;52.29
11648;BME280;5880;52.342;9.662;2023-02-11T01:13:41;102505.47;;;10.19;52.26
11648;BME280;5880;52.342;9.662;2023-02-11T01:16:08;102504.44;;;10.20;52.28
11648;BME280;5880;52.342;9.662;2023-02-11T01:18:36;102506.31;;;10.19;52.53
11648;BME280;5880;52.342;9.662;2023-02-11T01:21:01;102508.84;;;10.21;52.60
11648;BME280;5880;52.342;9.662;2023-02-11T01:23:27;102502.75;;;10.19;52.33
11648;BME280;5880;52.342;9.662;2023-02-11T01:25:53;102510.94;;;10.19;52.51
11648;BME280;5880;52.342;9.662;2023-02-11T01:28:23;102511.78;;;10.19;52.58
11648;BME280;5880;52.342;9.662;2023-02-11T01:30:50;102495.38;;;10.19;52.64
11648;BME280;5880;52.342;9.662;2023-02-11T01:33:16;102485.47;;;10.18;52.59
11648;BME280;5880;52.342;9.662;2023-02-11T01:35:43;102480.00;;;10.18;52.65
11648;BME280;5880;52.342;9.662;2023-02-11T01:38:17;102479.16;;;10.18;52.69
11648;BME280;5880;52.342;9.662;2023-02-11T01:40:56;102484.84;;;10.16;52.79
11648;BME280;5880;52.342;9.662;2023-02-11T01:43:24;102475.97;;;10.14;53.03
11648;BME280;5880;52.342;9.662;2023-02-11T01:49:10;102450.03;;;10.10;52.71
11648;BME280;5880;52.342;9.662;2023-02-11T01:51:45;102440.31;;;10.07;52.89
11648;BME280;5880;52.342;9.662;2023-02-11T01:54:17;102438.63;;;10.06;52.96
11648;BME280;5880;52.342;9.662;2023-02-11T01:57:04;102423.44;;;10.04;53.14
11648;BME280;5880;52.342;9.662;2023-02-11T01:59:57;102421.75;;;10.03;53.03
11648;BME280;5880;52.342;9.662;2023-02-11T02:02:54;102401.97;;;10.01;53.12
11648;BME280;5880;52.342;9.662;2023-02-11T02:08:53;102408.47;;;10.00;53.06
11648;BME280;5880;52.342;9.662;2023-02-11T02:11:19;102398.75;;;9.97;53.20
11648;BME280;5880;52.342;9.662;2023-02-11T02:13:45;102403.19;;;9.98;53.31
11648;BME280;5880;52.342;9.662;2023-02-11T02:16:15;102404.69;;;10.01;53.46
11648;BME280;5880;52.342;9.662;2023-02-11T02:19:33;102400.06;;;10.01;53.24
11648;BME280;5880;52.342;9.662;2023-02-11T02:22:51;102408.66;;;9.98;53.30
11648;BME280;5880;52.342;9.662;2023-02-11T02:26:05;102406.09;;;9.97;53.49
11648;BME280;5880;52.342;9.662;2023-02-11T02:32:09;102404.19;;;9.97;53.34
11648;BME280;5880;52.342;9.662;2023-02-11T02:34:53;102406.75;;;9.99;53.71
11648;BME280;5880;52.342;9.662;2023-02-11T02:40:16;102411.00;;;10.01;53.63
11648;BME280;5880;52.342;9.662;2023-02-11T02:42:43;102405.38;;;10.03;53.91
11648;BME280;5880;52.342;9.662;2023-02-11T02:45:11;102387.25;;;10.02;53.83
11648;BME280;5880;52.342;9.662;2023-02-11T02:47:38;102387.56;;;10.07;54.02
11648;BME280;5880;52.342;9.662;2023-02-11T02:50:05;102381.06;;;10.08;53.88
11648;BME280;5880;52.342;9.662;2023-02-11T02:55:47;102379.66;;;10.12;53.82
11648;BME280;5880;52.342;9.662;2023-02-11T03:01:29;102368.06;;;10.10;53.95
11648;BME280;5880;52.342;9.662;2023-02-11T03:04:20;102379.66;;;10.12;53.82
11648;BME280;5880;52.342;9.662;2023-02-11T03:07:08;102379.66;;;10.12;54.08
11648;BME280;5880;52.342;9.662;2023-02-11T03:09:57;102373.16;;;10.13;53.93
11648;BME280;5880;52.342;9.662;2023-02-11T03:12:29;102363.63;;;10.09;54.16
11648;BME280;5880;52.342;9.662;2023-02-11T03:14:58;102359.31;;;10.14;54.04
11648;BME280;5880;52.342;9.662;2023-02-11T03:17:26;102349.88;;;10.17;54.21
11648;BME280;5880;52.342;9.662;2023-02-11T03:19:55;102359.75;;;10.18;54.15
11648;BME280;5880;52.342;9.662;2023-02-11T03:22:31;102360.44;;;10.20;54.16
11648;BME280;5880;52.342;9.662;2023-02-11T03:25:00;102351.78;;;10.17;53.89
11648;BME280;5880;52.342;9.662;2023-02-11T03:27:51;102353.06;;;10.21;53.98
11648;BME280;5880;52.342;9.662;2023-02-11T03:30:31;102356.13;;;10.26;54.10
11648;BME280;5880;52.342;9.662;2023-02-11T03:33:12;102349.59;;;10.27;54.02
11648;BME280;5880;52.342;9.662;2023-02-11T03:35:44;102347.69;;;10.27;54.21
11648;BME280;5880;52.342;9.662;2023-02-11T03:38:21;102341.91;;;10.30;54.09
11648;BME280;5880;52.342;9.662;2023-02-11T03:40:50;102332.00;;;10.29;54.22
11648;BME280;5880;52.342;9.662;2023-02-11T03:43:21;102336.25;;;10.32;54.10
11648;BME280;5880;52.342;9.662;2023-02-11T03:45:52;102349.06;;;10.31;54.34
11648;BME280;5880;52.342;9.662;2023-02-11T03:48:32;102342.59;;;10.32;54.26
11648;BME280;5880;52.342;9.662;2023-02-11T03:51:02;102348.22;;;10.31;54.27
11648;BME280;5880;52.342;9.662;2023-02-11T03:53:29;102349.91;;;10.32;54.41
11648;BME280;5880;52.342;9.662;2023-02-11T03:55:59;102353.31;;;10.34;54.40
11648;BME280;5880;52.342;9.662;2023-02-11T03:58:27;102353.50;;;10.32;54.18
11648;BME280;5880;52.342;9.662;2023-02-11T04:00:53;102352.47;;;10.33;54.41
11648;BME280;5880;52.342;9.662;2023-02-11T04:03:18;102361.50;;;10.34;54.26
11648;BME280;5880;52.342;9.662;2023-02-11T04:05:44;102348.88;;;10.33;54.25
11648;BME280;5880;52.342;9.662;2023-02-11T04:08:10;102356.88;;;10.34;54.35
11648;BME280;5880;52.342;9.662;2023-02-11T04:10:36;102344.66;;;10.30;54.34
11648;BME280;5880;52.342;9.662;2023-02-11T04:13:01;102356.69;;;10.36;54.53
11648;BME280;5880;52.342;9.662;2023-02-11T04:15:27;102350.41;;;10.35;54.35
11648;BME280;5880;52.342;9.662;2023-02-11T04:17:53;102357.75;;;10.35;54.39
11648;BME280;5880;52.342;9.662;2023-02-11T04:20:18;102359.63;;;10.34;54.62
11648;BME280;5880;52.342;9.662;2023-02-11T04:22:44;102366.78;;;10.35;54.51
11648;BME280;5880;52.342;9.662;2023-02-11T04:25:10;102361.50;;;10.34;54.69
11648;BME280;5880;52.342;9.662;2023-02-11T04:27:36;102356.69;;;10.36;54.84
11648;BME280;5880;52.342;9.662;2023-02-11T04:30:05;102351.22;;;10.36;54.83
11648;BME280;5880;52.342;9.662;2023-02-11T04:32:31;102341.91;;;10.30;54.83
11648;BME280;5880;52.342;9.662;2023-02-11T04:34:57;102342.59;;;10.32;54.62
11648;BME280;5880;52.342;9.662;2023-02-11T04:37:22;102345.94;;;10.34;54.73
11648;BME280;5880;52.342;9.662;2023-02-11T04:39:48;102347.66;;;10.35;54.72
11648;BME280;5880;52.342;9.662;2023-02-11T04:42:14;102353.97;;;10.36;54.96
11648;BME280;5880;52.342;9.662;2023-02-11T04:44:39;102345.75;;;10.36;54.96
11648;BME280;5880;52.342;9.662;2023-02-11T04:47:05;102351.91;;;10.38;54.98
11648;BME280;5880;52.342;9.662;2023-02-11T04:49:32;102353.56;;;10.39;55.09
11648;BME280;5880;52.342;9.662;2023-02-11T04:51:57;102348.13;;;10.39;54.90
11648;BME280;5880;52.342;9.662;2023-02-11T04:54:23;102356.13;;;10.41;54.88
11648;BME280;5880;52.342;9.662;2023-02-11T04:56:49;102363.28;;;10.42;54.83
11648;BME280;5880;52.342;9.662;2023-02-11T04:59:15;102358.69;;;10.42;55.00
11648;BME280;5880;52.342;9.662;2023-02-11T05:01:41;102353.22;;;10.42;55.29
11648;BME280;5880;52.342;9.662;2023-02-11T05:04:07;102366.69;;;10.44;55.13
11648;BME280;5880;52.342;9.662;2023-02-11T05:06:32;102359.13;;;10.46;54.94
11648;BME280;5880;52.342;9.662;2023-02-11T05:08:58;102349.91;;;10.47;55.14
11648;BME280;5880;52.342;9.662;2023-02-11T05:11:24;102355.19;;;10.48;55.23
11648;BME280;5880;52.342;9.662;2023-02-11T05:13:51;102347.63;;;10.50;55.27
11648;BME280;5880;52.342;9.662;2023-02-11T05:16:17;102347.47;;;10.52;55.16
11648;BME280;5880;52.342;9.662;2023-02-11T05:18:44;102340.09;;;10.52;55.05
11648;BME280;5880;52.342;9.662;2023-02-11T05:21:18;102346.03;;;10.56;55.05
11648;BME280;5880;52.342;9.662;2023-02-11T05:23:45;102353.38;;;10.55;54.94
11648;BME280;5880;52.342;9.662;2023-02-11T05:26:11;102347.72;;;10.57;55.21
11648;BME280;5880;52.342;9.662;2023-02-11T05:28:37;102356.31;;;10.54;55.21
11648;BME280;5880;52.342;9.662;2023-02-11T05:31:04;102365.63;;;10.60;55.11
11648;BME280;5880;52.342;9.662;2023-02-11T05:33:30;102370.09;;;10.61;55.24
11648;BME280;5880;52.342;9.662;2023-02-11T05:36:10;102357.03;;;10.63;55.16
11648;BME280;5880;52.342;9.662;2023-02-11T05:38:37;102355.75;;;10.59;55.40
11648;BME280;5880;52.342;9.662;2023-02-11T05:41:04;102344.25;;;10.63;55.26
11648;BME280;5880;52.342;9.662;2023-02-11T05:43:31;102339.63;;;10.64;55.16
11648;BME280;5880;52.342;9.662;2023-02-11T05:45:57;102351.22;;;10.66;55.33
11648;BME280;5880;52.342;9.662;2023-02-11T05:48:23;102355.44;;;10.68;55.14
11648;BME280;5880;52.342;9.662;2023-02-11T05:50:49;102349.78;;;10.70;55.26
11648;BME280;5880;52.342;9.662;2023-02-11T05:53:14;102353.38;;;10.70;55.42
11648;BME280;5880;52.342;9.662;2023-02-11T05:55:40;102352.31;;;10.71;55.26
11648;BME280;5880;52.342;9.662;2023-02-11T05:58:06;102354.88;;;10.73;55.24
11648;BME280;5880;52.342;9.662;2023-02-11T06:00:33;102341.00;;;10.74;55.49
11648;BME280;5880;52.342;9.662;2023-02-11T06:02:59;102334.50;;;10.75;55.53
11648;BME280;5880;52.342;9.662;2023-02-11T06:05:25;102343.38;;;10.77;55.42
11648;BME280;5880;52.342;9.662;2023-02-11T06:07:50;102346.09;;;10.77;55.56
11648;BME280;5880;52.342;9.662;2023-02-11T06:10:16;102353.25;;;10.78;55.42
11648;BME280;5880;52.342;9.662;2023-02-11T06:12:42;102341.28;;;10.80;55.62
11648;BME280;5880;52.342;9.662;2023-02-11T06:15:09;102334.94;;;10.79;55.42
11648;BME280;5880;52.342;9.662;2023-02-11T06:17:35;102334.94;;;10.79;55.39
11648;BME280;5880;52.342;9.662;2023-02-11T06:20:04;102348.06;;;10.84;55.55
11648;BME280;5880;52.342;9.662;2023-02-11T06:22:31;102335.25;;;10.84;55.32
11648;BME280;5880;52.342;9.662;2023-02-11T06:24:56;102344.28;;;10.85;55.25
11648;BME280;5880;52.342;9.662;2023-02-11T06:27:22;102345.13;;;10.85;55.49
11648;BME280;5880;52.342;9.662;2023-02-11T06:29:48;102349.56;;;10.86;55.27
11648;BME280;5880;52.342;9.662;2023-02-11T06:32:16;102349.56;;;10.86;55.44
11648;BME280;5880;52.342;9.662;2023-02-11T06:34:42;102348.34;;;10.89;55.46
11648;BME280;5880;52.342;9.662;2023-02-11T06:37:08;102341.81;;;10.90;55.17
11648;BME280;5880;52.342;9.662;2023-02-11T06:39:34;102350.03;;;10.90;55.55
11648;BME280;5880;52.342;9.662;2023-02-11T06:41:59;102345.22;;;10.92;55.33
11648;BME280;5880;52.342;9.662;2023-02-11T06:44:25;102348.34;;;10.89;55.67
11648;BME280;5880;52.342;9.662;2023-02-11T06:46:50;102352.38;;;10.93;55.36
11648;BME280;5880;52.342;9.662;2023-02-11T06:49:16;102346.06;;;10.92;55.46
11648;BME280;5880;52.342;9.662;2023-02-11T06:51:42;102352.59;;;10.91;55.74
11648;BME280;5880;52.342;9.662;2023-02-11T06:54:07;102348.97;;;10.91;55.51
11648;BME280;5880;52.342;9.662;2023-02-11T06:56:33;102347.94;;;10.92;55.31
11648;BME280;5880;52.342;9.662;2023-02-11T06:58:59;102353.44;;;10.92;55.67
11648;BME280;5880;52.342;9.662;2023-02-11T07:01:26;102359.75;;;10.92;55.61
11648;BME280;5880;52.342;9.662;2023-02-11T07:03:52;102357.66;;;10.94;55.75
11648;BME280;5880;52.342;9.662;2023-02-11T07:06:23;102348.63;;;10.94;55.60
11648;BME280;5880;52.342;9.662;2023-02-11T07:08:50;102348.63;;;10.94;55.70
11648;BME280;5880;52.342;9.662;2023-02-11T07:13:46;102352.75;;;10.90;55.68
11648;BME280;5880;52.342;9.662;2023-02-11T07:16:15;102351.34;;;10.94;55.58
11648;BME280;5880;52.342;9.662;2023-02-11T07:18:42;102359.56;;;10.94;55.81
11648;BME280;5880;52.342;9.662;2023-02-11T07:21:10;102369.44;;;10.95;55.42
11648;BME280;5880;52.342;9.662;2023-02-11T07:23:37;102371.16;;;10.96;55.54
11648;BME280;5880;52.342;9.662;2023-02-11T07:26:04;102370.50;;;10.94;55.47
11648;BME280;5880;52.342;9.662;2023-02-11T07:28:31;102371.81;;;10.98;55.37
11648;BME280;5880;52.342;9.662;2023-02-11T07:30:58;102357.66;;;10.94;55.49
11648;BME280;5880;52.342;9.662;2023-02-11T07:33:23;102368.88;;;10.99;55.27
11648;BME280;5880;52.342;9.662;2023-02-11T07:35:49;102369.72;;;11.00;55.56
11648;BME280;5880;52.342;9.662;2023-02-11T07:38:15;102369.53;;;11.02;55.79
11648;BME280;5880;52.342;9.662;2023-02-11T07:40:40;102371.41;;;11.01;55.41
11648;BME280;5880;52.342;9.662;2023-02-11T07:43:06;102372.25;;;11.02;55.75
11648;BME280;5880;52.342;9.662;2023-02-11T07:45:31;102367.63;;;11.02;55.75
11648;BME280;5880;52.342;9.662;2023-02-11T07:47:57;102368.28;;;11.04;55.51
11648;BME280;5880;52.342;9.662;2023-02-11T07:50:23;102379.22;;;11.04;55.87
11648;BME280;5880;52.342;9.662;2023-02-11T07:52:48;102378.41;;;11.04;55.45
11648;BME280;5880;52.342;9.662;2023-02-11T07:55:14;102385.56;;;11.05;55.59
11648;BME280;5880;52.342;9.662;2023-02-11T07:57:39;102395.25;;;11.07;55.63
11648;BME280;5880;52.342;9.662;2023-02-11T08:00:06;102389.59;;;11.09;55.78
11648;BME280;5880;52.342;9.662;2023-02-11T08:02:32;102380.38;;;11.10;55.88
11648;BME280;5880;52.342;9.662;2023-02-11T08:04:57;102391.50;;;11.08;55.82
11648;BME280;5880;52.342;9.662;2023-02-11T08:07:23;102387.53;;;11.11;55.72
11648;BME280;5880;52.342;9.662;2023-02-11T08:09:49;102384.31;;;11.07;55.62
11648;BME280;5880;52.342;9.662;2023-02-11T08:12:15;102378.47;;;11.10;55.63
11648;BME280;5880;52.342;9.662;2023-02-11T08:14:40;102380.81;;;11.13;56.03
11648;BME280;5880;52.342;9.662;2023-02-11T08:17:06;102375.53;;;11.12;55.81
11648;BME280;5880;52.342;9.662;2023-02-11T08:19:32;102375.81;;;11.17;55.88
11648;BME280;5880;52.342;9.662;2023-02-11T08:21:58;102376.66;;;11.17;55.91
11648;BME280;5880;52.342;9.662;2023-02-11T08:24:25;102370.97;;;11.19;55.71
11648;BME280;5880;52.342;9.662;2023-02-11T08:26:51;102373.53;;;11.20;55.92
11648;BME280;5880;52.342;9.662;2023-02-11T08:29:16;102384.28;;;11.22;55.97
11648;BME280;5880;52.342;9.662;2023-02-11T08:31:45;102382.22;;;11.24;55.96
11648;BME280;5880;52.342;9.662;2023-02-11T08:34:13;102389.38;;;11.25;55.74
11648;BME280;5880;52.342;9.662;2023-02-11T08:36:42;102386.63;;;11.25;55.73
11648;BME280;5880;52.342;9.662;2023-02-11T08:39:17;102394.66;;;11.27;56.13
11648;BME280;5880;52.342;9.662;2023-02-11T08:41:44;102392.56;;;11.29;55.64
11648;BME280;5880;52.342;9.662;2023-02-11T08:44:10;102404.19;;;11.31;56.00
11648;BME280;5880;52.342;9.662;2023-02-11T08:46:36;102405.88;;;11.32;55.63
11648;BME280;5880;52.342;9.662;2023-02-11T08:49:02;102407.94;;;11.30;55.88
11648;BME280;5880;52.342;9.662;2023-02-11T08:51:29;102407.56;;;11.33;55.84
11648;BME280;5880;52.342;9.662;2023-02-11T08:53:56;102413.03;;;11.33;55.90
11648;BME280;5880;52.342;9.662;2023-02-11T08:56:22;102412.00;;;11.34;56.07
11648;BME280;5880;52.342;9.662;2023-02-11T08:58:48;102399.56;;;11.31;55.79
11648;BME280;5880;52.342;9.662;2023-02-11T09:01:27;102405.09;;;11.38;55.97
11648;BME280;5880;52.342;9.662;2023-02-11T09:03:53;102410.56;;;11.38;55.89
11648;BME280;5880;52.342;9.662;2023-02-11T09:06:19;102412.06;;;11.40;56.09
11648;BME280;5880;52.342;9.662;2023-02-11T09:08:49;102416.31;;;11.43;56.16
11648;BME280;5880;52.342;9.662;2023-02-11T09:11:17;102417.34;;;11.42;56.18
11648;BME280;5880;52.342;9.662;2023-02-11T09:13:44;102426.88;;;11.46;55.87
11648;BME280;5880;52.342;9.662;2023-02-11T09:16:24;102416.38;;;11.50;56.04
11648;BME280;5880;52.342;9.662;2023-02-11T09:18:50;102424.97;;;11.47;56.51
11648;BME280;5880;52.342;9.662;2023-02-11T09:21:17;102428.84;;;11.52;56.33
11648;BME280;5880;52.342;9.662;2023-02-11T09:23:44;102432.22;;;11.54;56.40
11648;BME280;5880;52.342;9.662;2023-02-11T09:26:18;102432.69;;;11.58;56.40
11648;BME280;5880;52.342;9.662;2023-02-11T09:28:44;102422.38;;;11.60;56.17
11648;BME280;5880;52.342;9.662;2023-02-11T09:31:14;102425.78;;;11.62;56.19
11648;BME280;5880;52.342;9.662;2023-02-11T09:33:44;102432.94;;;11.63;56.05
11648;BME280;5880;52.342;9.662;2023-02-11T09:36:23;102438.88;;;11.67;56.36
11648;BME280;5880;52.342;9.662;2023-02-11T09:38:50;102444.34;;;11.67;56.18
11648;BME280;5880;52.342;9.662;2023-02-11T09:43:55;102450.28;;;11.70;55.86
11648;BME280;5880;52.342;9.662;2023-02-11T09:46:23;102456.63;;;11.71;56.01
11648;BME280;5880;52.342;9.662;2023-02-11T09:48:53;102456.22;;;11.74;56.15
11648;BME280;5880;52.342;9.662;2023-02-11T09:51:46;102464.25;;;11.75;55.99
11648;BME280;5880;52.342;9.662;2023-02-11T09:54:48;102455.16;;;11.75;56.27
11648;BME280;5880;52.342;9.662;2023-02-11T09:57:17;102473.91;;;11.71;56.10
11648;BME280;5880;52.342;9.662;2023-02-11T09:59:42;102477.09;;;11.75;56.16
11648;BME280;5880;52.342;9.662;2023-02-11T10:02:26;102492.28;;;11.77;56.09
11648;BME280;5880;52.342;9.662;2023-02-11T10:05:21;102494.00;;;11.78;55.94
11648;BME280;5880;52.342;9.662;2023-02-11T10:08:28;102502.22;;;11.78;55.73
11648;BME280;5880;52.342;9.662;2023-02-11T10:11:11;102491.06;;;11.80;56.07
11648;BME280;5880;52.342;9.662;2023-02-11T10:17:25;102491.06;;;11.80;56.36
11648;BME280;5880;52.342;9.662;2023-02-11T10:20:42;102506.63;;;11.79;56.33
11648;BME280;5880;52.342;9.662;2023-02-11T10:23:19;102516.34;;;11.82;56.43
11648;BME280;5880;52.342;9.662;2023-02-11T10:25:50;102507.50;;;11.80;56.24
11648;BME280;5880;52.342;9.662;2023-02-11T10:28:35;102508.47;;;11.87;56.08
11648;BME280;5880;52.342;9.662;2023-02-11T10:31:23;102520.06;;;11.89;56.11
11648;BME280;5880;52.342;9.662;2023-02-11T10:36:33;102502.41;;;11.92;56.16
11648;BME280;5880;52.342;9.662;2023-02-11T10:39:11;102504.09;;;11.93;56.17
11648;BME280;5880;52.342;9.662;2023-02-11T10:41:43;102503.91;;;11.94;56.17
11648;BME280;5880;52.342;9.662;2023-02-11T10:44:38;102492.06;;;11.94;56.22
11648;BME280;5880;52.342;9.662;2023-02-11T10:47:14;102502.00;;;11.95;56.50
11648;BME280;5880;52.342;9.662;2023-02-11T10:49:45;102513.88;;;12.02;56.58
11648;BME280;5880;52.342;9.662;2023-02-11T10:52:20;102509.03;;;12.04;56.51
11648;BME280;5880;52.342;9.662;2023-02-11T10:57:53;102511.38;;;12.07;56.19
11648;BME280;5880;52.342;9.662;2023-02-11T11:00:42;102505.25;;;12.05;56.21
11648;BME280;5880;52.342;9.662;2023-02-11T11:03:22;102516.69;;;12.09;56.25
11648;BME280;5880;52.342;9.662;2023-02-11T11:05:57;102510.13;;;12.10;56.52
11648;BME280;5880;52.342;9.662;2023-02-11T11:08:48;102511.63;;;12.12;56.25
11648;BME280;5880;52.342;9.662;2023-02-11T11:11:19;102497.09;;;12.12;56.20
11648;BME280;5880;52.342;9.662;2023-02-11T11:16:32;102503.03;;;12.15;56.31
11648;BME280;5880;52.342;9.662;2023-02-11T11:21:47;102520.31;;;12.16;56.43
11648;BME280;5880;52.342;9.662;2023-02-11T11:24:28;102521.16;;;12.16;56.54
11648;BME280;5880;52.342;9.662;2023-02-11T11:26:59;102526.84;;;12.15;56.49
11648;BME280;5880;52.342;9.662;2023-02-11T11:29:37;102515.88;;;12.15;56.17
11648;BME280;5880;52.342;9.662;2023-02-11T11:32:23;102511.25;;;12.15;56.47
11648;BME280;5880;52.342;9.662;2023-02-11T11:34:54;102518.63;;;12.15;56.31
11648;BME280;5880;52.342;9.662;2023-02-11T11:37:30;102505.97;;;12.14;56.22
11648;BME280;5880;52.342;9.662;2023-02-11T11:42:42;102516.03;;;12.07;56.29
11648;BME280;5880;52.342;9.662;2023-02-11T11:47:52;102530.16;;;12.10;56.31
11648;BME280;5880;52.342;9.662;2023-02-11T11:50:31;102523.84;;;12.10;56.57
11648;BME280;5880;52.342;9.662;2023-02-11T11:53:13;102520.25;;;12.09;56.33
11648;BME280;5880;52.342;9.662;2023-02-11T11:55:45;102507.16;;;12.04;56.40
11648;BME280;5880;52.342;9.662;2023-02-11T11:58:21;102510.97;;;12.10;56.31
11648;BME280;5880;52.342;9.662;2023-02-11T12:01:09;102521.75;;;12.12;56.44
11648;BME280;5880;52.342;9.662;2023-02-11T12:04:17;102518.34;;;12.10;56.31
11648;BME280;5880;52.342;9.662;2023-02-11T12:06:59;102510.13;;;12.10;56.83
11648;BME280;5880;52.342;9.662;2023-02-11T12:09:47;102501.06;;;12.09;56.64
11648;BME280;5880;52.342;9.662;2023-02-11T12:13:19;102510.53;;;12.07;56.66
11648;BME280;5880;52.342;9.662;2023-02-11T12:16:23;102506.31;;;12.04;56.26
11648;BME280;5880;52.342;9.662;2023-02-11T12:19:16;102500.59;;;12.06;56.71
11648;BME280;5880;52.342;9.662;2023-02-11T12:33:30;102506.50;;;12.02;56.90
11648;BME280;5880;52.342;9.662;2023-02-11T12:36:14;102510.28;;;12.01;56.78
11648;BME280;5880;52.342;9.662;2023-02-11T12:42:32;102521.44;;;12.00;57.13
11648;BME280;5880;52.342;9.662;2023-02-11T12:51:39;102527.38;;;12.03;57.16
11648;BME280;5880;52.342;9.662;2023-02-11T12:54:17;102518.94;;;12.05;57.19
11648;BME280;5880;52.342;9.662;2023-02-11T12:59:56;102518.56;;;12.08;56.82
11648;BME280;5880;52.342;9.662;2023-02-11T13:02:40;102519.19;;;12.10;56.85
11648;BME280;5880;52.342;9.662;2023-02-11T13:08:15;102512.69;;;12.11;56.81
11648;BME280;5880;52.342;9.662;2023-02-11T13:10:48;102513.53;;;12.12;57.16
11648;BME280;5880;52.342;9.662;2023-02-11T13:13:24;102504.47;;;12.11;57.16
11648;BME280;5880;52.342;9.662;2023-02-11T13:16:05;102500.66;;;12.12;57.12
11648;BME280;5880;52.342;9.662;2023-02-11T13:19:02;102509.94;;;12.11;57.04
11648;BME280;5880;52.342;9.662;2023-02-11T13:22:12;102521.94;;;12.10;57.03
11648;BME280;5880;52.342;9.662;2023-02-11T13:24:50;102519.59;;;12.07;56.89
11648;BME280;5880;52.342;9.662;2023-02-11T13:27:46;102524.06;;;12.08;56.93
11648;BME280;5880;52.342;9.662;2023-02-11T13:30:29;102523.19;;;12.08;56.86
11648;BME280;5880;52.342;9.662;2023-02-11T13:35:38;102525.56;;;12.11;57.11
11648;BME280;5880;52.342;9.662;2023-02-11T13:38:24;102523.66;;;12.11;57.05
11648;BME280;5880;52.342;9.662;2023-02-11T13:41:17;102527.25;;;12.12;57.07
11648;BME280;5880;52.342;9.662;2023-02-11T13:43:58;102519.84;;;12.12;57.21
11648;BME280;5880;52.342;9.662;2023-02-11T13:46:26;102520.50;;;12.14;57.12
11648;BME280;5880;52.342;9.662;2023-02-11T13:48:54;102521.16;;;12.16;57.25
11648;BME280;5880;52.342;9.662;2023-02-11T13:51:41;102527.97;;;12.20;57.25
11648;BME280;5880;52.342;9.662;2023-02-11T13:54:20;102528.16;;;12.19;57.15
11648;BME280;5880;52.342;9.662;2023-02-11T13:59:56;102525.59;;;12.17;57.11
11648;BME280;5880;52.342;9.662;2023-02-11T14:02:35;102522.66;;;12.19;57.12
11648;BME280;5880;52.342;9.662;2023-02-11T14:05:31;102522.66;;;12.19;57.09
11648;BME280;5880;52.342;9.662;2023-02-11T14:08:22;102518.44;;;12.16;57.25
11648;BME280;5880;52.342;9.662;2023-02-11T14:14:24;102535.94;;;12.15;57.20
11648;BME280;5880;52.342;9.662;2023-02-11T14:19:40;102536.78;;;12.16;57.37
11648;BME280;5880;52.342;9.662;2023-02-11T14:22:21;102531.94;;;12.18;57.23
11648;BME280;5880;52.342;9.662;2023-02-11T14:24:55;102533.63;;;12.19;57.53
11648;BME280;5880;52.342;9.662;2023-02-11T14:27:41;102549.91;;;12.20;57.41
11648;BME280;5880;52.342;9.662;2023-02-11T14:30:28;102541.44;;;12.22;57.22
11648;BME280;5880;52.342;9.662;2023-02-11T14:33:09;102543.34;;;12.21;57.19
11648;BME280;5880;52.342;9.662;2023-02-11T14:38:54;102541.84;;;12.19;57.19
11648;BME280;5880;52.342;9.662;2023-02-11T14:41:26;102555.75;;;12.17;57.51
11648;BME280;5880;52.342;9.662;2023-02-11T14:44:03;102551.78;;;12.20;57.33
11648;BME280;5880;52.342;9.662;2023-02-11T14:46:32;102552.81;;;12.19;57.39
11648;BME280;5880;52.342;9.662;2023-02-11T14:49:02;102551.56;;;12.21;57.55
11648;BME280;5880;52.342;9.662;2023-02-11T14:51:34;102550.56;;;12.22;57.67
11648;BME280;5880;52.342;9.662;2023-02-11T14:54:15;102552.22;;;12.23;57.54